createdAt,value
2023-03-01T00:01:03.852Z,66.16
2023-03-01T00:03:30.437Z,65.87
2023-03-01T00:05:56.976Z,66.37
2023-03-01T00:08:23.448Z,68.49
2023-03-01T00:10:50.059Z,67.96
2023-03-01T00:13:16.601Z,67.68
2023-03-01T00:15:43.128Z,68.54
2023-03-01T00:18:09.580Z,69.32
2023-03-01T00:20:36.142Z,70.69
2023-03-01T00:23:02.651Z,71.45
2023-03-01T00:25:29.150Z,71.83
2023-03-01T00:27:55.681Z,71.32
2023-03-01T00:30:22.195Z,72.45
2023-03-01T00:32:48.691Z,72.39
2023-03-01T00:35:15.568Z,73.83
2023-03-01T00:37:42.484Z,74.39
2023-03-01T00:40:09.504Z,73.45
2023-03-01T00:42:35.955Z,72.08
2023-03-01T00:45:02.431Z,72.91
2023-03-01T00:47:30.256Z,72.70
2023-03-01T00:49:56.740Z,72.89
2023-03-01T00:52:23.199Z,72.28
2023-03-01T00:54:49.726Z,71.87
2023-03-01T00:57:16.205Z,72.47
2023-03-01T00:59:42.794Z,70.97
2023-03-01T01:02:09.595Z,72.47
2023-03-01T01:04:36.152Z,73.08
2023-03-01T01:07:02.674Z,72.39
2023-03-01T01:09:29.172Z,72.52
2023-03-01T01:11:55.630Z,74.28
2023-03-01T01:14:22.201Z,73.91
2023-03-01T01:16:48.737Z,74.75
2023-03-01T01:19:15.480Z,73.28
2023-03-01T01:21:44.231Z,73.46
2023-03-01T01:24:11.192Z,74.33
2023-03-01T01:26:37.701Z,74.39
2023-03-01T01:29:05.856Z,72.52
2023-03-01T01:31:33.226Z,73.66
2023-03-01T01:34:01.043Z,77.28
2023-03-01T01:36:27.964Z,76.91
2023-03-01T01:38:54.784Z,76.24
2023-03-01T01:41:22.338Z,75.35
2023-03-01T01:44:09.385Z,75.55
2023-03-01T01:46:38.929Z,76.85
2023-03-01T01:49:11.125Z,74.48
2023-03-01T01:51:41.273Z,77.38
2023-03-01T01:54:13.649Z,77.42
2023-03-01T01:56:42.283Z,76.00
2023-03-01T01:59:09.031Z,75.68
2023-03-01T02:01:35.554Z,75.36
2023-03-01T02:04:02.099Z,77.31
2023-03-01T02:06:35.212Z,76.91
2023-03-01T02:09:06.515Z,77.06
2023-03-01T02:11:33.723Z,77.69
2023-03-01T02:14:00.693Z,76.73
2023-03-01T02:16:27.669Z,75.96
2023-03-01T02:18:54.459Z,76.63
2023-03-01T02:21:35.661Z,78.14
2023-03-01T02:24:12.245Z,76.67
2023-03-01T02:26:51.037Z,76.38
2023-03-01T02:29:17.648Z,77.13
2023-03-01T02:31:44.324Z,76.63
2023-03-01T02:34:14.226Z,76.86
2023-03-01T02:36:45.371Z,76.71
2023-03-01T02:39:17.561Z,77.54
2023-03-01T02:41:48.805Z,77.98
2023-03-01T02:44:15.306Z,78.53
2023-03-01T02:46:53.142Z,79.16
2023-03-01T02:49:26.746Z,78.41
2023-03-01T02:52:06.012Z,78.00
2023-03-01T02:54:39.838Z,78.63
2023-03-01T02:57:06.602Z,79.20
2023-03-01T02:59:40.485Z,77.73
2023-03-01T03:02:39.686Z,77.82
2023-03-01T03:05:09.284Z,77.99
2023-03-01T03:07:37.929Z,79.35
2023-03-01T03:10:07.350Z,79.71
2023-03-01T03:12:33.844Z,77.03
2023-03-01T03:15:00.300Z,79.60
2023-03-01T03:17:26.776Z,79.06
2023-03-01T03:19:53.278Z,78.88
2023-03-01T03:22:19.784Z,78.54
2023-03-01T03:24:46.219Z,78.03
2023-03-01T03:27:12.674Z,78.28
2023-03-01T03:29:39.128Z,78.22
2023-03-01T03:32:05.646Z,77.33
2023-03-01T03:34:32.140Z,76.88
2023-03-01T03:37:00.437Z,76.34
2023-03-01T03:39:28.202Z,74.67
2023-03-01T03:41:54.962Z,77.22
2023-03-01T03:44:22.150Z,77.02
2023-03-01T03:46:48.613Z,76.42
2023-03-01T03:49:15.099Z,76.27
2023-03-01T03:51:41.553Z,76.17
2023-03-01T03:54:08.063Z,77.59
2023-03-01T03:56:34.650Z,77.59
2023-03-01T03:59:01.232Z,78.79
2023-03-01T04:01:27.718Z,77.09
2023-03-01T04:03:55.524Z,76.93
2023-03-01T04:06:22.221Z,79.31
2023-03-01T04:08:52.068Z,77.71
2023-03-01T04:11:27.706Z,77.05
2023-03-01T04:13:56.556Z,77.12
2023-03-01T04:16:23.661Z,77.34
2023-03-01T04:18:50.455Z,77.85
2023-03-01T04:21:17.135Z,78.49
2023-03-01T04:23:43.738Z,79.01
2023-03-01T04:26:10.421Z,77.57
2023-03-01T04:28:41.008Z,79.35
2023-03-01T04:31:17.435Z,78.26
2023-03-01T04:33:46.402Z,77.48
2023-03-01T04:36:14.758Z,77.56
2023-03-01T04:38:42.152Z,75.53
2023-03-01T04:41:11.730Z,76.06
2023-03-01T04:43:38.942Z,76.60
2023-03-01T04:46:09.216Z,76.93
2023-03-01T04:48:37.489Z,77.08
2023-03-01T04:51:04.688Z,75.51
2023-03-01T04:53:33.458Z,76.00
2023-03-01T04:56:00.186Z,77.52
2023-03-01T04:58:27.936Z,77.50
2023-03-01T05:00:54.806Z,76.92
2023-03-01T05:03:21.701Z,75.50
2023-03-01T05:05:51.685Z,75.92
2023-03-01T05:08:18.824Z,76.23
2023-03-01T05:10:47.778Z,75.95
2023-03-01T05:13:16.122Z,76.08
2023-03-01T05:15:42.982Z,75.33
2023-03-01T05:18:12.328Z,74.85
2023-03-01T05:20:39.260Z,76.81
2023-03-01T05:23:06.381Z,75.33
2023-03-01T05:25:41.032Z,75.49
2023-03-01T05:28:11.007Z,75.23
2023-03-01T05:30:37.481Z,75.57
2023-03-01T05:33:03.973Z,75.38
2023-03-01T05:35:30.579Z,76.31
2023-03-01T05:37:57.170Z,77.43
2023-03-01T05:40:25.204Z,77.53
2023-03-01T05:42:56.081Z,77.00
2023-03-01T05:45:24.482Z,76.64
2023-03-01T05:47:51.405Z,75.74
2023-03-01T05:50:29.282Z,76.68
2023-03-01T05:53:02.103Z,77.81
2023-03-01T05:55:29.902Z,77.38
2023-03-01T05:57:56.636Z,76.07
2023-03-01T06:00:23.627Z,77.17
2023-03-01T06:02:50.226Z,77.10
2023-03-01T06:05:17.099Z,75.86
2023-03-01T06:07:43.554Z,75.64
2023-03-01T06:10:11.949Z,74.83
2023-03-01T06:12:39.646Z,75.23
2023-03-01T06:15:07.771Z,76.03
2023-03-01T06:17:38.696Z,76.16
2023-03-01T06:20:31.739Z,75.72
2023-03-01T06:22:58.275Z,76.68
2023-03-01T06:25:26.617Z,77.57
2023-03-01T06:27:55.976Z,76.41
2023-03-01T06:30:24.206Z,77.48
2023-03-01T06:32:50.937Z,77.84
2023-03-01T06:35:19.023Z,77.39
2023-03-01T06:37:46.819Z,77.99
2023-03-01T06:40:14.911Z,77.28
2023-03-01T06:42:42.918Z,76.73
2023-03-01T06:45:10.754Z,78.40
2023-03-01T06:47:37.201Z,76.77
2023-03-01T06:50:04.114Z,76.15
2023-03-01T06:52:30.865Z,76.30
2023-03-01T06:54:57.398Z,77.38
2023-03-01T06:57:23.999Z,76.05
2023-03-01T06:59:50.518Z,75.72
2023-03-01T07:02:17.104Z,76.38
2023-03-01T07:04:43.726Z,76.89
2023-03-01T07:07:10.353Z,76.57
2023-03-01T07:09:36.998Z,75.61
2023-03-01T07:12:03.712Z,76.54
2023-03-01T07:14:30.325Z,75.95
2023-03-01T07:16:56.794Z,76.39
2023-03-01T07:19:23.998Z,76.26
2023-03-01T07:21:50.507Z,76.62
2023-03-01T07:24:17.018Z,77.83
2023-03-01T07:26:43.484Z,79.00
2023-03-01T07:29:11.364Z,77.49
2023-03-01T07:31:37.853Z,77.84
2023-03-01T07:34:04.366Z,77.24
2023-03-01T07:36:31.107Z,76.95
2023-03-01T07:38:58.873Z,76.91
2023-03-01T07:41:25.485Z,77.96
2023-03-01T07:43:51.975Z,77.99
2023-03-01T07:46:20.192Z,80.54
2023-03-01T07:48:47.026Z,81.76
2023-03-01T07:51:13.795Z,80.96
2023-03-01T07:53:40.250Z,79.60
2023-03-01T07:56:12.017Z,80.58
2023-03-01T07:58:40.629Z,81.00
2023-03-01T08:01:11.671Z,78.94
2023-03-01T08:03:38.953Z,77.38
2023-03-01T08:06:07.431Z,75.84
2023-03-01T08:08:34.692Z,77.21
2023-03-01T08:11:02.253Z,76.12
2023-03-01T08:13:29.216Z,76.94
2023-03-01T08:15:55.954Z,78.21
2023-03-01T08:18:22.629Z,78.48
2023-03-01T08:20:49.135Z,77.68
2023-03-01T08:23:15.643Z,78.19
2023-03-01T08:25:42.421Z,80.19
2023-03-01T08:28:08.868Z,78.77
2023-03-01T08:30:35.782Z,77.70
2023-03-01T08:33:02.275Z,77.69
2023-03-01T08:35:28.785Z,76.33
2023-03-01T08:37:55.250Z,76.34
2023-03-01T08:40:21.733Z,77.91
2023-03-01T08:42:48.195Z,78.96
2023-03-01T08:45:19.087Z,79.07
2023-03-01T08:47:46.273Z,79.69
2023-03-01T08:50:12.982Z,77.47
2023-03-01T08:52:39.546Z,76.01
2023-03-01T08:55:06.937Z,76.02
2023-03-01T08:57:33.401Z,79.26
2023-03-01T08:59:59.857Z,78.63
2023-03-01T09:02:26.310Z,78.83
2023-03-01T09:04:52.766Z,77.53
2023-03-01T09:07:19.256Z,77.42
2023-03-01T09:09:45.857Z,76.21
2023-03-01T09:12:12.332Z,77.63
2023-03-01T09:14:39.814Z,75.61
2023-03-01T09:17:06.368Z,76.09
2023-03-01T09:19:32.909Z,76.46
2023-03-01T09:21:59.453Z,78.17
2023-03-01T09:24:26.520Z,76.06
2023-03-01T09:26:57.376Z,76.39
2023-03-01T09:29:24.364Z,79.27
2023-03-01T09:31:50.912Z,78.92
2023-03-01T09:34:20.277Z,77.68
2023-03-01T09:36:46.744Z,78.44
2023-03-01T09:39:13.228Z,76.11
2023-03-01T09:42:03.314Z,78.39
2023-03-01T09:44:39.139Z,79.01
2023-03-01T09:47:06.769Z,78.42
2023-03-01T09:49:36.560Z,76.50
2023-03-01T09:52:42.720Z,75.71
2023-03-01T09:55:13.046Z,78.42
2023-03-01T09:57:55.751Z,76.36
2023-03-01T10:00:31.778Z,76.04
2023-03-01T10:03:26.092Z,76.37
2023-03-01T10:06:01.156Z,77.04
2023-03-01T10:08:44.329Z,77.40
2023-03-01T10:11:26.612Z,73.33
2023-03-01T10:13:59.468Z,72.41
2023-03-01T10:16:34.212Z,73.80
2023-03-01T10:19:04.211Z,75.25
2023-03-01T10:21:33.829Z,75.92
2023-03-01T10:24:12.496Z,75.42
2023-03-01T10:26:46.092Z,75.03
2023-03-01T10:29:13.850Z,74.88
2023-03-01T10:31:45.964Z,73.82
2023-03-01T10:34:18.379Z,72.98
2023-03-01T10:36:48.855Z,72.66
2023-03-01T10:39:22.029Z,72.64
2023-03-01T10:42:20.548Z,75.77
2023-03-01T10:44:49.408Z,74.98
2023-03-01T10:47:25.692Z,72.65
2023-03-01T10:49:53.139Z,72.68
2023-03-01T10:52:22.069Z,71.70
2023-03-01T10:54:57.929Z,71.09
2023-03-01T10:57:42.412Z,72.59
2023-03-01T11:00:25.038Z,74.60
2023-03-01T11:03:00.661Z,74.42
2023-03-01T11:05:29.396Z,74.14
2023-03-01T11:07:58.004Z,73.19
2023-03-01T11:10:30.001Z,75.19
2023-03-01T11:13:17.055Z,74.42
2023-03-01T11:15:43.955Z,71.19
2023-03-01T11:18:21.613Z,72.19
2023-03-01T11:20:49.397Z,74.30
2023-03-01T11:23:16.624Z,72.69
2023-03-01T11:25:45.322Z,71.07
2023-03-01T11:28:16.135Z,70.71
2023-03-01T11:31:06.847Z,70.24
2023-03-01T11:34:09.483Z,73.86
2023-03-01T11:36:37.817Z,73.98
2023-03-01T11:39:28.735Z,74.72
2023-03-01T11:42:18.103Z,73.63
2023-03-01T11:44:46.728Z,73.16
2023-03-01T11:47:45.775Z,71.03
2023-03-01T11:50:32.024Z,72.36
2023-03-01T11:53:01.780Z,72.58
2023-03-01T11:55:54.056Z,71.78
2023-03-01T11:58:58.077Z,69.85
2023-03-01T12:01:37.269Z,70.30
2023-03-01T12:04:10.806Z,69.76
2023-03-01T12:06:57.801Z,71.36
2023-03-01T12:10:04.706Z,68.94
2023-03-01T12:12:54.356Z,68.62
2023-03-01T12:15:53.672Z,69.49
2023-03-01T12:18:34.408Z,68.82
2023-03-01T12:21:06.750Z,68.05
2023-03-01T12:24:11.393Z,68.82
2023-03-01T12:26:47.412Z,70.20
2023-03-01T12:29:24.997Z,69.04
2023-03-01T12:32:20.388Z,67.66
2023-03-01T12:35:08.935Z,65.80
2023-03-01T12:37:58.170Z,69.37
2023-03-01T12:40:35.020Z,70.08
2023-03-01T12:43:39.055Z,68.49
2023-03-01T12:46:36.542Z,66.08
2023-03-01T12:49:10.325Z,66.00
2023-03-01T12:51:39.182Z,65.49
2023-03-01T12:54:16.883Z,65.04
2023-03-01T12:56:43.649Z,65.31
2023-03-01T12:59:17.965Z,65.88
2023-03-01T13:01:53.040Z,67.22
2023-03-01T13:04:33.886Z,68.16
2023-03-01T13:07:12.534Z,66.12
2023-03-01T13:09:56.766Z,66.62
2023-03-01T13:12:45.350Z,63.92
2023-03-01T13:15:23.709Z,66.64
2023-03-01T13:18:16.595Z,67.45
2023-03-01T13:20:43.221Z,66.81
2023-03-01T13:23:14.580Z,66.44
2023-03-01T13:25:59.744Z,67.17
2023-03-01T13:28:35.508Z,67.94
2023-03-01T13:31:03.863Z,67.93
2023-03-01T13:33:30.306Z,65.51
2023-03-01T13:36:00.722Z,65.37
2023-03-01T13:38:47.329Z,64.57
2023-03-01T13:41:39.370Z,64.26
2023-03-01T13:44:30.042Z,66.72
2023-03-01T13:47:06.996Z,68.14
2023-03-01T13:49:46.559Z,66.46
2023-03-01T13:52:40.545Z,68.64
2023-03-01T13:55:43.025Z,67.14
2023-03-01T13:58:32.759Z,67.30
2023-03-01T14:01:00.932Z,67.53
2023-03-01T14:03:28.235Z,66.94
2023-03-01T14:06:13.267Z,68.59
2023-03-01T14:08:43.728Z,68.39
2023-03-01T14:11:26.428Z,67.08
2023-03-01T14:13:59.718Z,68.61
2023-03-01T14:16:45.893Z,69.12
2023-03-01T14:19:33.227Z,68.55
2023-03-01T14:22:05.632Z,65.70
2023-03-01T14:24:33.914Z,66.75
2023-03-01T14:27:02.322Z,66.88
2023-03-01T14:29:38.971Z,67.47
2023-03-01T14:32:23.577Z,67.71
2023-03-01T14:34:51.600Z,69.50
2023-03-01T14:37:35.165Z,69.54
2023-03-01T14:40:03.715Z,70.16
2023-03-01T14:42:34.608Z,71.25
2023-03-01T14:45:02.068Z,71.65
2023-03-01T14:47:33.467Z,70.63
2023-03-01T14:50:08.287Z,69.31
2023-03-01T14:52:39.724Z,69.32
2023-03-01T14:55:14.514Z,70.38
2023-03-01T14:57:44.587Z,70.97
2023-03-01T15:00:18.964Z,71.82
2023-03-01T15:02:47.437Z,72.01
2023-03-01T15:05:15.530Z,71.92
2023-03-01T15:07:49.886Z,71.53
2023-03-01T15:10:25.215Z,72.21
2023-03-01T15:12:53.824Z,73.14
2023-03-01T15:15:29.498Z,72.38
2023-03-01T15:17:58.102Z,72.48
2023-03-01T15:20:26.918Z,73.54
2023-03-01T15:22:54.707Z,73.38
2023-03-01T15:25:25.048Z,72.50
2023-03-01T15:27:52.962Z,72.93
2023-03-01T15:30:22.858Z,73.60
2023-03-01T15:32:49.570Z,74.07
2023-03-01T15:35:46.655Z,74.34
2023-03-01T15:38:36.155Z,73.73
2023-03-01T15:41:33.268Z,72.75
2023-03-01T15:44:00.938Z,72.10
2023-03-01T15:46:33.555Z,73.58
2023-03-01T15:49:03.477Z,71.47
2023-03-01T15:51:35.352Z,71.55
2023-03-01T15:54:08.012Z,72.48
2023-03-01T15:56:34.453Z,74.36
2023-03-01T15:59:03.289Z,74.88
2023-03-01T16:01:30.268Z,73.83
2023-03-01T16:03:57.540Z,75.65
2023-03-01T16:06:23.978Z,73.85
2023-03-01T16:08:50.480Z,74.29
2023-03-01T16:11:19.026Z,73.29
2023-03-01T16:13:46.420Z,76.42
2023-03-01T16:16:17.136Z,76.02
2023-03-01T16:18:47.788Z,75.08
2023-03-01T16:21:21.818Z,74.83
2023-03-01T16:23:48.652Z,73.44
2023-03-01T16:26:15.313Z,73.64
2023-03-01T16:28:43.061Z,74.70
2023-03-01T16:31:10.257Z,72.80
2023-03-01T16:33:37.711Z,74.28
2023-03-01T16:36:12.075Z,74.07
2023-03-01T16:38:39.655Z,73.86
2023-03-01T16:41:06.512Z,73.54
2023-03-01T16:43:32.987Z,75.34
2023-03-01T16:46:00.006Z,75.13
2023-03-01T16:48:27.105Z,75.50
2023-03-01T16:50:58.221Z,74.92
2023-03-01T16:53:24.663Z,75.29
2023-03-01T16:55:58.422Z,77.28
2023-03-01T16:58:25.695Z,80.11
2023-03-01T17:00:54.387Z,78.21
2023-03-01T17:03:22.536Z,76.75
2023-03-01T17:05:49.148Z,78.39
2023-03-01T17:08:15.884Z,77.88
2023-03-01T17:10:45.235Z,79.49
2023-03-01T17:13:13.078Z,80.20
2023-03-01T17:15:43.332Z,80.04
2023-03-01T17:18:09.884Z,79.01
2023-03-01T17:20:36.980Z,81.16
2023-03-01T17:23:03.910Z,81.81
2023-03-01T17:25:30.400Z,78.48
2023-03-01T17:27:56.871Z,80.24
2023-03-01T17:30:23.477Z,79.87
2023-03-01T17:32:50.230Z,76.65
2023-03-01T17:35:16.893Z,79.33
2023-03-01T17:37:46.524Z,80.03
2023-03-01T17:40:13.381Z,80.80
2023-03-01T17:42:39.897Z,80.21
2023-03-01T17:45:07.272Z,79.36
2023-03-01T17:47:33.709Z,78.11
2023-03-01T17:50:00.520Z,81.48
2023-03-01T17:52:27.034Z,82.18
2023-03-01T17:54:53.502Z,81.31
2023-03-01T17:57:19.944Z,81.81
2023-03-01T17:59:46.412Z,82.23
2023-03-01T18:02:13.510Z,81.20
2023-03-01T18:04:40.023Z,84.07
2023-03-01T18:07:06.434Z,82.09
2023-03-01T18:09:33.008Z,81.23
2023-03-01T18:11:59.515Z,80.33
2023-03-01T18:14:29.830Z,82.01
2023-03-01T18:16:56.398Z,83.27
2023-03-01T18:19:23.004Z,82.26
2023-03-01T18:21:49.565Z,80.89
2023-03-01T18:24:16.682Z,80.42
2023-03-01T18:26:43.413Z,80.83
2023-03-01T18:29:10.605Z,81.66
2023-03-01T18:31:37.608Z,81.26
2023-03-01T18:34:04.354Z,81.80
2023-03-01T18:36:33.238Z,83.16
2023-03-01T18:39:02.066Z,82.46
2023-03-01T18:41:29.292Z,79.85
2023-03-01T18:43:57.070Z,79.43
2023-03-01T18:46:23.794Z,80.75
2023-03-01T18:48:52.048Z,80.71
2023-03-01T18:51:26.773Z,77.38
2023-03-01T18:53:53.752Z,77.72
2023-03-01T18:56:20.264Z,77.65
2023-03-01T18:58:46.711Z,79.28
2023-03-01T19:01:22.723Z,79.57
2023-03-01T19:03:49.830Z,80.24
2023-03-01T19:06:17.255Z,79.81
2023-03-01T19:08:46.114Z,80.00
2023-03-01T19:11:14.077Z,79.36
2023-03-01T19:13:41.142Z,79.37
2023-03-01T19:16:13.656Z,78.48
2023-03-01T19:18:42.252Z,79.51
2023-03-01T19:21:12.818Z,81.24
2023-03-01T19:23:39.373Z,78.89
2023-03-01T19:26:14.093Z,79.86
2023-03-01T19:28:41.252Z,82.16
2023-03-01T19:31:10.419Z,80.94
2023-03-01T19:33:37.820Z,83.67
2023-03-01T19:36:07.257Z,83.96
2023-03-01T19:38:34.944Z,83.08
2023-03-01T19:41:10.022Z,81.70
2023-03-01T19:43:36.852Z,80.20
2023-03-01T19:46:03.778Z,80.33
2023-03-01T19:48:30.258Z,80.00
2023-03-01T19:50:56.827Z,79.31
2023-03-01T19:53:23.321Z,80.52
2023-03-01T19:55:53.004Z,79.50
2023-03-01T19:58:19.568Z,79.18
2023-03-01T20:00:47.265Z,79.34
2023-03-01T20:03:14.063Z,81.87
2023-03-01T20:05:42.812Z,83.27
2023-03-01T20:08:09.540Z,82.09
2023-03-01T20:10:36.139Z,79.90
2023-03-01T20:13:02.742Z,81.07
2023-03-01T20:15:29.473Z,81.71
2023-03-01T20:17:55.955Z,82.92
2023-03-01T20:20:22.421Z,83.35
2023-03-01T20:22:48.892Z,83.57
2023-03-01T20:25:15.475Z,81.12
2023-03-01T20:27:42.082Z,80.40
2023-03-01T20:30:09.363Z,80.22
2023-03-01T20:32:35.938Z,80.89
2023-03-01T20:35:03.188Z,79.45
2023-03-01T20:37:29.728Z,80.95
2023-03-01T20:39:56.201Z,82.08
2023-03-01T20:42:22.773Z,81.69
2023-03-01T20:44:49.266Z,82.43
2023-03-01T20:47:16.291Z,82.92
2023-03-01T20:49:42.781Z,84.99
2023-03-01T20:52:09.354Z,82.61
2023-03-01T20:54:36.223Z,81.98
2023-03-01T20:57:02.864Z,83.87
2023-03-01T20:59:29.350Z,83.55
2023-03-01T21:01:55.962Z,82.56
2023-03-01T21:04:22.769Z,84.70
2023-03-01T21:06:49.409Z,86.10
2023-03-01T21:09:16.002Z,82.97
2023-03-01T21:11:42.538Z,83.87
2023-03-01T21:14:09.481Z,83.79
2023-03-01T21:16:36.514Z,80.99
2023-03-01T21:19:06.069Z,80.95
2023-03-01T21:21:32.677Z,80.21
2023-03-01T21:23:59.154Z,80.39
2023-03-01T21:26:26.968Z,81.28
2023-03-01T21:28:58.906Z,80.18
2023-03-01T21:31:35.541Z,79.86
2023-03-01T21:34:04.753Z,79.96
2023-03-01T21:36:32.069Z,80.20
2023-03-01T21:39:00.730Z,80.85
2023-03-01T21:41:31.188Z,82.66
2023-03-01T21:44:00.804Z,83.90
2023-03-01T21:46:30.767Z,81.37
2023-03-01T21:48:57.650Z,84.49
2023-03-01T21:51:26.744Z,84.25
2023-03-01T21:53:55.756Z,85.59
2023-03-01T21:56:26.125Z,84.09
2023-03-01T21:58:53.222Z,82.54
2023-03-01T22:01:25.795Z,83.27
2023-03-01T22:03:52.495Z,82.32
2023-03-01T22:06:22.818Z,81.32
2023-03-01T22:08:56.281Z,82.36
2023-03-01T22:11:24.116Z,81.97
2023-03-01T22:13:52.343Z,79.50
2023-03-01T22:16:27.824Z,80.11
2023-03-01T22:18:54.590Z,79.39
2023-03-01T22:21:23.035Z,80.36
2023-03-01T22:23:49.592Z,81.39
2023-03-01T22:26:30.318Z,80.11
2023-03-01T22:28:58.948Z,80.81
2023-03-01T22:31:26.160Z,79.85
2023-03-01T22:33:53.511Z,81.70
2023-03-01T22:36:20.669Z,84.74
2023-03-01T22:38:47.662Z,84.52
2023-03-01T22:41:16.072Z,84.39
2023-03-01T22:43:42.559Z,85.12
2023-03-01T22:46:16.789Z,83.82
2023-03-01T22:48:43.717Z,83.58
2023-03-01T22:51:21.309Z,82.45
2023-03-01T22:53:48.133Z,82.73
2023-03-01T22:56:20.544Z,82.77
2023-03-01T22:58:47.376Z,85.09
2023-03-01T23:01:16.076Z,82.37
2023-03-01T23:03:43.738Z,80.95
2023-03-01T23:06:10.691Z,80.70
2023-03-01T23:08:37.928Z,81.70
2023-03-01T23:11:10.682Z,81.10
2023-03-01T23:13:37.237Z,81.98
2023-03-01T23:16:03.898Z,82.14
2023-03-01T23:18:30.387Z,81.09
2023-03-01T23:20:56.930Z,79.34
2023-03-01T23:23:23.417Z,80.61
2023-03-01T23:25:54.609Z,79.38
2023-03-01T23:28:21.452Z,79.59
2023-03-01T23:31:05.050Z,80.60
2023-03-01T23:33:38.749Z,78.35
2023-03-01T23:36:19.306Z,79.51
2023-03-01T23:38:47.484Z,79.23
2023-03-01T23:41:19.516Z,79.79
2023-03-01T23:43:50.957Z,79.25
2023-03-01T23:46:18.850Z,78.66
2023-03-01T23:48:45.778Z,78.75
2023-03-01T23:51:12.744Z,79.40
2023-03-01T23:53:54.009Z,79.83
2023-03-01T23:56:26.274Z,79.44
2023-03-01T23:58:57.764Z,79.87
